sensor_id;sensor_type;location;lat;lon;timestamp;P1;P2;P0
73825;PMS5003;64145;55.060;73.168;2023-03-05T00:01:06;6.00;5.00;3.00
73825;PMS5003;64145;55.060;73.168;2023-03-05T00:03:32;7.00;6.00;3.00
73825;PMS5003;64145;55.060;73.168;2023-03-05T00:05:58;5.00;5.00;3.00
73825;PMS5003;64145;55.060;73.168;2023-03-05T00:08:23;4.67;4.67;3.00
73825;PMS5003;64145;55.060;73.168;2023-03-05T00:10:55;4.00;4.00;2.00
73825;PMS5003;64145;55.060;73.168;2023-03-05T00:13:21;6.25;5.25;3.00
73825;PMS5003;64145;55.060;73.168;2023-03-05T00:15:46;6.00;6.00;2.00
73825;PMS5003;64145;55.060;73.168;2023-03-05T00:18:12;4.00;4.00;3.00
73825;PMS5003;64145;55.060;73.168;2023-03-05T00:20:48;5.00;5.00;3.00
73825;PMS5003;64145;55.060;73.168;2023-03-05T00:23:13;5.00;4.33;3.00
73825;PMS5003;64145;55.060;73.168;2023-03-05T00:25:39;5.00;5.00;3.00
73825;PMS5003;64145;55.060;73.168;2023-03-05T00:28:11;5.00;4.00;3.00
73825;PMS5003;64145;55.060;73.168;2023-03-05T00:30:42;6.00;4.25;3.00
73825;PMS5003;64145;55.060;73.168;2023-03-05T00:33:08;4.00;4.00;2.00
73825;PMS5003;64145;55.060;73.168;2023-03-05T00:35:39;6.00;6.00;2.25
73825;PMS5003;64145;55.060;73.168;2023-03-05T00:38:11;5.00;5.00;2.25
73825;PMS5003;64145;55.060;73.168;2023-03-05T00:40:37;6.00;6.00;3.00
73825;PMS5003;64145;55.060;73.168;2023-03-05T00:43:03;6.00;6.00;3.00
73825;PMS5003;64145;55.060;73.168;2023-03-05T00:45:29;4.50;4.50;3.00
73825;PMS5003;64145;55.060;73.168;2023-03-05T00:47:55;4.67;4.67;2.00
73825;PMS5003;64145;55.060;73.168;2023-03-05T00:50:20;6.00;6.00;3.00
73825;PMS5003;64145;55.060;73.168;2023-03-05T00:52:46;5.33;5.33;2.00
73825;PMS5003;64145;55.060;73.168;2023-03-05T00:55:11;5.00;5.00;3.00
73825;PMS5003;64145;55.060;73.168;2023-03-05T00:57:37;6.00;5.00;3.00
73825;PMS5003;64145;55.060;73.168;2023-03-05T01:00:03;5.00;5.00;2.00
73825;PMS5003;64145;55.060;73.168;2023-03-05T01:02:29;5.00;4.00;2.00
73825;PMS5003;64145;55.060;73.168;2023-03-05T01:04:55;4.67;4.67;1.67
73825;PMS5003;64145;55.060;73.168;2023-03-05T01:07:30;6.00;6.00;2.00
73825;PMS5003;64145;55.060;73.168;2023-03-05T01:09:56;6.00;6.00;3.00
73825;PMS5003;64145;55.060;73.168;2023-03-05T01:12:27;4.50;4.50;3.00
73825;PMS5003;64145;55.060;73.168;2023-03-05T01:14:52;5.00;5.00;2.00
73825;PMS5003;64145;55.060;73.168;2023-03-05T01:17:18;6.00;6.00;3.00
73825;PMS5003;64145;55.060;73.168;2023-03-05T01:19:43;7.67;6.67;3.67
73825;PMS5003;64145;55.060;73.168;2023-03-05T01:22:09;8.00;7.33;3.00
73825;PMS5003;64145;55.060;73.168;2023-03-05T01:24:39;8.25;8.25;3.75
73825;PMS5003;64145;55.060;73.168;2023-03-05T01:27:05;7.00;6.00;3.00
73825;PMS5003;64145;55.060;73.168;2023-03-05T01:29:30;8.00;6.00;3.00
73825;PMS5003;64145;55.060;73.168;2023-03-05T01:32:06;9.00;7.00;3.00
73825;PMS5003;64145;55.060;73.168;2023-03-05T01:34:31;8.00;7.00;3.00
73825;PMS5003;64145;55.060;73.168;2023-03-05T01:37:02;7.00;6.00;3.00
73825;PMS5003;64145;55.060;73.168;2023-03-05T01:39:37;6.00;5.50;2.00
73825;PMS5003;64145;55.060;73.168;2023-03-05T01:42:13;8.25;6.00;3.00
73825;PMS5003;64145;55.060;73.168;2023-03-05T01:44:57;6.00;5.00;3.00
73825;PMS5003;64145;55.060;73.168;2023-03-05T01:47:23;6.50;5.75;2.50
73825;PMS5003;64145;55.060;73.168;2023-03-05T01:49:49;8.00;7.33;2.33
73825;PMS5003;64145;55.060;73.168;2023-03-05T01:52:16;5.67;5.00;3.00
73825;PMS5003;64145;55.060;73.168;2023-03-05T01:54:43;7.50;5.50;3.25
73825;PMS5003;64145;55.060;73.168;2023-03-05T01:59:54;7.50;7.00;4.00
73825;PMS5003;64145;55.060;73.168;2023-03-05T02:02:26;8.50;7.00;3.50
73825;PMS5003;64145;55.060;73.168;2023-03-05T02:04:56;8.33;7.00;5.00
73825;PMS5003;64145;55.060;73.168;2023-03-05T02:07:23;9.00;9.00;3.00
73825;PMS5003;64145;55.060;73.168;2023-03-05T02:09:49;8.33;8.33;4.33
73825;PMS5003;64145;55.060;73.168;2023-03-05T02:12:19;12.50;11.50;6.75
73825;PMS5003;64145;55.060;73.168;2023-03-05T02:14:56;12.00;11.00;4.00
73825;PMS5003;64145;55.060;73.168;2023-03-05T02:17:25;11.75;9.50;4.25
73825;PMS5003;64145;55.060;73.168;2023-03-05T02:19:52;14.00;11.25;5.25
73825;PMS5003;64145;55.060;73.168;2023-03-05T02:22:20;14.00;12.00;5.00
73825;PMS5003;64145;55.060;73.168;2023-03-05T02:24:46;13.50;13.00;5.00
73825;PMS5003;64145;55.060;73.168;2023-03-05T02:27:12;14.00;12.00;4.00
73825;PMS5003;64145;55.060;73.168;2023-03-05T02:29:39;14.50;14.00;6.50
73825;PMS5003;64145;55.060;73.168;2023-03-05T02:32:06;14.00;12.25;4.25
73825;PMS5003;64145;55.060;73.168;2023-03-05T02:34:38;13.75;12.75;4.00
73825;PMS5003;64145;55.060;73.168;2023-03-05T02:37:03;14.00;12.33;5.33
73825;PMS5003;64145;55.060;73.168;2023-03-05T02:39:32;13.00;11.33;4.00
73825;PMS5003;64145;55.060;73.168;2023-03-05T02:41:57;13.00;11.50;4.00
73825;PMS5003;64145;55.060;73.168;2023-03-05T02:44:23;16.33;14.33;7.67
73825;PMS5003;64145;55.060;73.168;2023-03-05T02:46:49;25.00;21.33;12.33
73825;PMS5003;64145;55.060;73.168;2023-03-05T02:49:15;30.75;23.75;15.25
73825;PMS5003;64145;55.060;73.168;2023-03-05T02:51:40;29.00;24.00;14.33
73825;PMS5003;64145;55.060;73.168;2023-03-05T02:54:06;18.67;17.00;10.33
73825;PMS5003;64145;55.060;73.168;2023-03-05T02:56:31;15.00;12.00;5.00
73825;PMS5003;64145;55.060;73.168;2023-03-05T02:58:57;13.00;12.00;3.00
73825;PMS5003;64145;55.060;73.168;2023-03-05T03:01:28;10.25;8.75;3.00
73825;PMS5003;64145;55.060;73.168;2023-03-05T03:03:54;10.67;8.00;4.67
73825;PMS5003;64145;55.060;73.168;2023-03-05T03:06:19;8.00;6.00;3.00
73825;PMS5003;64145;55.060;73.168;2023-03-05T03:08:56;10.00;8.50;4.00
73825;PMS5003;64145;55.060;73.168;2023-03-05T03:11:21;8.00;5.50;2.50
73825;PMS5003;64145;55.060;73.168;2023-03-05T03:13:52;8.00;7.75;3.50
73825;PMS5003;64145;55.060;73.168;2023-03-05T03:16:17;9.00;8.33;3.00
73825;PMS5003;64145;55.060;73.168;2023-03-05T03:18:43;11.33;9.00;5.00
73825;PMS5003;64145;55.060;73.168;2023-03-05T03:21:18;9.00;7.00;3.75
73825;PMS5003;64145;55.060;73.168;2023-03-05T03:23:44;12.00;9.00;6.00
73825;PMS5003;64145;55.060;73.168;2023-03-05T03:26:10;9.00;6.33;3.00
73825;PMS5003;64145;55.060;73.168;2023-03-05T03:28:45;8.00;6.00;3.00
73825;PMS5003;64145;55.060;73.168;2023-03-05T03:31:11;5.33;4.33;2.00
73825;PMS5003;64145;55.060;73.168;2023-03-05T03:33:41;5.00;4.00;2.00
73825;PMS5003;64145;55.060;73.168;2023-03-05T03:36:07;4.00;3.00;2.00
73825;PMS5003;64145;55.060;73.168;2023-03-05T03:38:33;4.75;4.00;1.50
73825;PMS5003;64145;55.060;73.168;2023-03-05T03:40:58;5.00;5.00;1.00
73825;PMS5003;64145;55.060;73.168;2023-03-05T03:43:29;6.00;5.50;3.00
73825;PMS5003;64145;55.060;73.168;2023-03-05T03:45:55;6.00;6.00;3.00
73825;PMS5003;64145;55.060;73.168;2023-03-05T03:48:25;3.50;3.50;2.00
73825;PMS5003;64145;55.060;73.168;2023-03-05T03:51:05;6.00;6.00;3.00
73825;PMS5003;64145;55.060;73.168;2023-03-05T03:53:36;6.00;5.00;2.00
73825;PMS5003;64145;55.060;73.168;2023-03-05T03:56:02;6.00;6.00;2.00
73825;PMS5003;64145;55.060;73.168;2023-03-05T03:58:41;6.00;6.00;3.00
73825;PMS5003;64145;55.060;73.168;2023-03-05T04:01:06;6.00;6.00;3.00
73825;PMS5003;64145;55.060;73.168;2023-03-05T04:03:32;6.00;5.00;3.00
73825;PMS5003;64145;55.060;73.168;2023-03-05T04:05:57;6.00;5.67;3.00
73825;PMS5003;64145;55.060;73.168;2023-03-05T04:08:23;4.00;4.00;2.00
73825;PMS5003;64145;55.060;73.168;2023-03-05T04:10:48;3.00;3.00;1.00
73825;PMS5003;64145;55.060;73.168;2023-03-05T04:13:19;4.00;3.00;0.00
73825;PMS5003;64145;55.060;73.168;2023-03-05T04:15:49;3.00;3.00;0.00
73825;PMS5003;64145;55.060;73.168;2023-03-05T04:18:15;3.00;3.00;1.00
73825;PMS5003;64145;55.060;73.168;2023-03-05T04:20:51;3.00;3.00;1.00
73825;PMS5003;64145;55.060;73.168;2023-03-05T04:23:21;2.25;2.25;0.00
73825;PMS5003;64145;55.060;73.168;2023-03-05T04:25:47;1.33;1.33;0.00
73825;PMS5003;64145;55.060;73.168;2023-03-05T04:28:22;4.00;4.00;1.75
73825;PMS5003;64145;55.060;73.168;2023-03-05T04:30:48;4.00;3.33;1.00
73825;PMS5003;64145;55.060;73.168;2023-03-05T04:33:14;3.33;3.33;1.00
73825;PMS5003;64145;55.060;73.168;2023-03-05T04:35:39;3.00;3.00;1.00
73825;PMS5003;64145;55.060;73.168;2023-03-05T04:38:09;2.00;2.00;1.00
73825;PMS5003;64145;55.060;73.168;2023-03-05T04:40:44;0.00;0.00;0.00
73825;PMS5003;64145;55.060;73.168;2023-03-05T04:43:10;0.00;0.00;0.00
73825;PMS5003;64145;55.060;73.168;2023-03-05T04:45:45;1.00;1.00;0.00
73825;PMS5003;64145;55.060;73.168;2023-03-05T04:48:11;1.00;1.00;0.00
73825;PMS5003;64145;55.060;73.168;2023-03-05T04:50:36;2.00;1.00;0.00
73825;PMS5003;64145;55.060;73.168;2023-03-05T04:53:02;1.00;1.00;0.00
73825;PMS5003;64145;55.060;73.168;2023-03-05T04:55:38;0.00;0.00;0.00
73825;PMS5003;64145;55.060;73.168;2023-03-05T04:58:03;0.00;0.00;0.00
73825;PMS5003;64145;55.060;73.168;2023-03-05T05:00:29;0.00;0.00;0.00
73825;PMS5003;64145;55.060;73.168;2023-03-05T05:02:59;0.50;0.00;0.00
73825;PMS5003;64145;55.060;73.168;2023-03-05T05:05:25;0.00;0.00;0.00
73825;PMS5003;64145;55.060;73.168;2023-03-05T05:07:54;0.00;0.00;0.00
73825;PMS5003;64145;55.060;73.168;2023-03-05T05:10:20;0.00;0.00;0.00
73825;PMS5003;64145;55.060;73.168;2023-03-05T05:12:48;0.00;0.00;0.00
73825;PMS5003;64145;55.060;73.168;2023-03-05T05:15:18;1.00;1.00;0.00
73825;PMS5003;64145;55.060;73.168;2023-03-05T05:17:49;2.50;1.50;0.00
73825;PMS5003;64145;55.060;73.168;2023-03-05T05:20:15;1.00;1.00;0.00
73825;PMS5003;64145;55.060;73.168;2023-03-05T05:22:41;1.00;1.00;0.00
73825;PMS5003;64145;55.060;73.168;2023-03-05T05:25:07;0.00;0.00;0.00
73825;PMS5003;64145;55.060;73.168;2023-03-05T05:27:32;0.00;0.00;0.00
73825;PMS5003;64145;55.060;73.168;2023-03-05T05:29:59;0.00;0.00;0.00
73825;PMS5003;64145;55.060;73.168;2023-03-05T05:32:25;1.00;1.00;0.00
73825;PMS5003;64145;55.060;73.168;2023-03-05T05:35:00;1.75;1.00;0.00
73825;PMS5003;64145;55.060;73.168;2023-03-05T05:37:26;1.33;0.33;0.00
73825;PMS5003;64145;55.060;73.168;2023-03-05T05:39:52;1.00;1.00;0.00
73825;PMS5003;64145;55.060;73.168;2023-03-05T05:42:21;1.00;1.00;0.00
73825;PMS5003;64145;55.060;73.168;2023-03-05T05:44:57;1.00;1.00;0.00
73825;PMS5003;64145;55.060;73.168;2023-03-05T05:47:22;2.00;2.00;0.00
73825;PMS5003;64145;55.060;73.168;2023-03-05T05:49:48;2.00;2.00;0.00
73825;PMS5003;64145;55.060;73.168;2023-03-05T05:52:14;0.67;0.67;0.00
73825;PMS5003;64145;55.060;73.168;2023-03-05T05:54:39;2.00;2.00;0.00
73825;PMS5003;64145;55.060;73.168;2023-03-05T05:57:14;1.00;1.00;0.00
73825;PMS5003;64145;55.060;73.168;2023-03-05T05:59:40;2.00;1.00;0.00
73825;PMS5003;64145;55.060;73.168;2023-03-05T06:02:06;1.00;1.00;0.00
73825;PMS5003;64145;55.060;73.168;2023-03-05T06:04:35;1.75;1.00;0.00
73825;PMS5003;64145;55.060;73.168;2023-03-05T06:07:01;2.75;2.50;0.00
73825;PMS5003;64145;55.060;73.168;2023-03-05T06:09:27;1.00;1.00;0.00
73825;PMS5003;64145;55.060;73.168;2023-03-05T06:12:03;3.00;3.00;0.00
73825;PMS5003;64145;55.060;73.168;2023-03-05T06:14:33;3.00;2.00;0.00
73825;PMS5003;64145;55.060;73.168;2023-03-05T06:16:59;2.00;1.00;0.00
73825;PMS5003;64145;55.060;73.168;2023-03-05T06:19:24;2.00;1.33;0.00
73825;PMS5003;64145;55.060;73.168;2023-03-05T06:21:50;0.00;0.00;0.00
73825;PMS5003;64145;55.060;73.168;2023-03-05T06:24:15;1.00;0.00;0.00
73825;PMS5003;64145;55.060;73.168;2023-03-05T06:26:43;2.00;0.00;0.00
73825;PMS5003;64145;55.060;73.168;2023-03-05T06:29:11;2.00;1.00;0.00
73825;PMS5003;64145;55.060;73.168;2023-03-05T06:31:37;1.00;1.00;0.00
73825;PMS5003;64145;55.060;73.168;2023-03-05T06:34:08;2.00;0.00;0.00
73825;PMS5003;64145;55.060;73.168;2023-03-05T06:36:34;3.00;1.00;0.00
73825;PMS5003;64145;55.060;73.168;2023-03-05T06:38:59;2.00;1.00;0.00
73825;PMS5003;64145;55.060;73.168;2023-03-05T06:41:26;2.00;2.00;0.00
73825;PMS5003;64145;55.060;73.168;2023-03-05T06:43:58;2.00;0.00;0.00
73825;PMS5003;64145;55.060;73.168;2023-03-05T06:46:34;2.00;0.00;0.00
73825;PMS5003;64145;55.060;73.168;2023-03-05T06:49:02;2.00;0.00;0.00
73825;PMS5003;64145;55.060;73.168;2023-03-05T06:51:32;3.00;2.50;0.00
73825;PMS5003;64145;55.060;73.168;2023-03-05T06:53:59;1.00;1.00;0.00
73825;PMS5003;64145;55.060;73.168;2023-03-05T06:56:30;2.00;1.50;0.00
73825;PMS5003;64145;55.060;73.168;2023-03-05T06:59:07;3.00;3.00;0.00
73825;PMS5003;64145;55.060;73.168;2023-03-05T07:01:42;2.00;2.00;0.00
73825;PMS5003;64145;55.060;73.168;2023-03-05T07:04:08;2.00;1.00;0.00
73825;PMS5003;64145;55.060;73.168;2023-03-05T07:06:35;3.00;1.67;0.00
73825;PMS5003;64145;55.060;73.168;2023-03-05T07:09:02;1.00;1.00;0.00
73825;PMS5003;64145;55.060;73.168;2023-03-05T07:11:29;1.00;1.00;0.00
73825;PMS5003;64145;55.060;73.168;2023-03-05T07:13:54;1.00;1.00;0.00
73825;PMS5003;64145;55.060;73.168;2023-03-05T07:16:31;2.00;2.00;0.00
73825;PMS5003;64145;55.060;73.168;2023-03-05T07:18:57;3.00;2.00;0.00
73825;PMS5003;64145;55.060;73.168;2023-03-05T07:21:24;2.75;2.25;0.00
73825;PMS5003;64145;55.060;73.168;2023-03-05T07:23:54;1.00;1.00;0.00
73825;PMS5003;64145;55.060;73.168;2023-03-05T07:26:31;3.00;2.25;0.00
73825;PMS5003;64145;55.060;73.168;2023-03-05T07:28:57;6.00;5.00;0.50
73825;PMS5003;64145;55.060;73.168;2023-03-05T07:31:28;3.00;3.00;2.00
73825;PMS5003;64145;55.060;73.168;2023-03-05T07:33:57;3.50;3.00;1.00
73825;PMS5003;64145;55.060;73.168;2023-03-05T07:36:23;7.00;5.00;2.00
73825;PMS5003;64145;55.060;73.168;2023-03-05T07:38:49;5.00;5.00;0.00
73825;PMS5003;64145;55.060;73.168;2023-03-05T07:41:15;4.00;3.00;0.00
73825;PMS5003;64145;55.060;73.168;2023-03-05T07:43:51;3.00;3.00;0.00
73825;PMS5003;64145;55.060;73.168;2023-03-05T07:46:18;3.00;2.00;0.00
73825;PMS5003;64145;55.060;73.168;2023-03-05T07:48:44;4.00;3.50;0.00
73825;PMS5003;64145;55.060;73.168;2023-03-05T07:51:11;4.33;4.00;1.00
73825;PMS5003;64145;55.060;73.168;2023-03-05T07:53:39;6.00;5.00;2.00
73825;PMS5003;64145;55.060;73.168;2023-03-05T07:56:04;4.00;3.67;1.00
73825;PMS5003;64145;55.060;73.168;2023-03-05T07:58:30;4.00;3.00;0.00
73825;PMS5003;64145;55.060;73.168;2023-03-05T08:00:56;3.00;3.00;0.33
73825;PMS5003;64145;55.060;73.168;2023-03-05T08:03:25;5.50;4.75;2.00
73825;PMS5003;64145;55.060;73.168;2023-03-05T08:05:50;15.33;14.67;8.00
73825;PMS5003;64145;55.060;73.168;2023-03-05T08:08:26;16.50;15.50;6.75
73825;PMS5003;64145;55.060;73.168;2023-03-05T08:10:52;13.67;9.00;3.00
73825;PMS5003;64145;55.060;73.168;2023-03-05T08:13:17;9.33;6.00;2.00
73825;PMS5003;64145;55.060;73.168;2023-03-05T08:15:53;6.00;5.25;3.00
73825;PMS5003;64145;55.060;73.168;2023-03-05T08:18:28;11.50;9.75;5.00
73825;PMS5003;64145;55.060;73.168;2023-03-05T08:20:54;13.00;11.00;5.00
73825;PMS5003;64145;55.060;73.168;2023-03-05T08:23:29;19.00;16.00;7.50
73825;PMS5003;64145;55.060;73.168;2023-03-05T08:25:59;12.75;12.00;3.75
73825;PMS5003;64145;55.060;73.168;2023-03-05T08:28:35;5.00;4.00;1.50
73825;PMS5003;64145;55.060;73.168;2023-03-05T08:31:00;7.33;7.33;3.33
73825;PMS5003;64145;55.060;73.168;2023-03-05T08:33:27;4.75;4.50;2.00
73825;PMS5003;64145;55.060;73.168;2023-03-05T08:35:53;11.67;10.00;5.33
73825;PMS5003;64145;55.060;73.168;2023-03-05T08:38:28;24.75;21.50;11.75
73825;PMS5003;64145;55.060;73.168;2023-03-05T08:41:04;22.50;20.00;13.00
73825;PMS5003;64145;55.060;73.168;2023-03-05T08:43:35;16.00;16.00;10.25
73825;PMS5003;64145;55.060;73.168;2023-03-05T08:46:01;23.00;21.75;12.00
73825;PMS5003;64145;55.060;73.168;2023-03-05T08:48:27;22.25;20.50;11.50
73825;PMS5003;64145;55.060;73.168;2023-03-05T08:50:53;23.75;22.50;13.00
73825;PMS5003;64145;55.060;73.168;2023-03-05T08:53:23;20.25;18.00;11.50
73825;PMS5003;64145;55.060;73.168;2023-03-05T08:55:52;13.00;11.67;5.00
73825;PMS5003;64145;55.060;73.168;2023-03-05T08:58:18;15.50;14.25;6.50
73825;PMS5003;64145;55.060;73.168;2023-03-05T09:00:44;11.67;11.67;4.00
73825;PMS5003;64145;55.060;73.168;2023-03-05T09:03:09;3.00;3.00;2.00
73825;PMS5003;64145;55.060;73.168;2023-03-05T09:05:35;4.00;3.00;2.00
73825;PMS5003;64145;55.060;73.168;2023-03-05T09:08:00;6.00;4.00;2.00
73825;PMS5003;64145;55.060;73.168;2023-03-05T09:10:30;4.50;4.00;2.00
73825;PMS5003;64145;55.060;73.168;2023-03-05T09:13:07;6.00;5.75;2.00
73825;PMS5003;64145;55.060;73.168;2023-03-05T09:15:32;15.67;12.67;7.00
73825;PMS5003;64145;55.060;73.168;2023-03-05T09:18:02;21.25;19.25;11.00
73825;PMS5003;64145;55.060;73.168;2023-03-05T09:20:30;34.50;27.75;17.50
73825;PMS5003;64145;55.060;73.168;2023-03-05T09:22:57;22.75;22.00;12.75
73825;PMS5003;64145;55.060;73.168;2023-03-05T09:25:22;16.67;15.33;6.33
73825;PMS5003;64145;55.060;73.168;2023-03-05T09:27:58;17.50;15.25;7.00
73825;PMS5003;64145;55.060;73.168;2023-03-05T09:30:24;19.67;18.33;10.33
73825;PMS5003;64145;55.060;73.168;2023-03-05T09:32:49;16.67;15.00;6.67
73825;PMS5003;64145;55.060;73.168;2023-03-05T09:35:15;15.00;13.75;5.00
73825;PMS5003;64145;55.060;73.168;2023-03-05T09:37:41;18.33;17.00;7.00
73825;PMS5003;64145;55.060;73.168;2023-03-05T09:40:06;16.67;15.00;7.00
73825;PMS5003;64145;55.060;73.168;2023-03-05T09:42:37;37.25;29.75;17.00
73825;PMS5003;64145;55.060;73.168;2023-03-05T09:45:23;35.25;28.00;18.00
73825;PMS5003;64145;55.060;73.168;2023-03-05T09:48:00;25.50;23.25;14.50
73825;PMS5003;64145;55.060;73.168;2023-03-05T09:50:32;29.50;25.50;16.25
73825;PMS5003;64145;55.060;73.168;2023-03-05T09:55:51;30.50;24.50;16.25
73825;PMS5003;64145;55.060;73.168;2023-03-05T10:01:04;28.50;23.00;14.50
73825;PMS5003;64145;55.060;73.168;2023-03-05T10:03:38;25.00;21.25;14.00
73825;PMS5003;64145;55.060;73.168;2023-03-05T10:08:53;35.50;28.75;18.00
73825;PMS5003;64145;55.060;73.168;2023-03-05T10:11:33;39.00;30.25;18.00
73825;PMS5003;64145;55.060;73.168;2023-03-05T10:14:02;33.50;25.75;17.00
73825;PMS5003;64145;55.060;73.168;2023-03-05T10:21:56;23.25;20.00;12.00
73825;PMS5003;64145;55.060;73.168;2023-03-05T10:27:07;36.25;28.50;17.50
73825;PMS5003;64145;55.060;73.168;2023-03-05T10:34:41;23.00;21.00;14.00
73825;PMS5003;64145;55.060;73.168;2023-03-05T10:39:42;20.00;19.00;12.00
73825;PMS5003;64145;55.060;73.168;2023-03-05T10:44:57;11.25;8.00;3.00
73825;PMS5003;64145;55.060;73.168;2023-03-05T10:50:32;12.00;11.00;5.00
73825;PMS5003;64145;55.060;73.168;2023-03-05T10:55:38;7.50;7.50;4.00
73825;PMS5003;64145;55.060;73.168;2023-03-05T10:58:13;12.33;11.33;6.00
73825;PMS5003;64145;55.060;73.168;2023-03-05T11:00:58;14.00;13.50;6.50
73825;PMS5003;64145;55.060;73.168;2023-03-05T11:03:23;15.25;14.00;6.00
73825;PMS5003;64145;55.060;73.168;2023-03-05T11:05:58;16.50;14.50;8.50
73825;PMS5003;64145;55.060;73.168;2023-03-05T11:08:25;14.50;14.00;6.75
73825;PMS5003;64145;55.060;73.168;2023-03-05T11:13:31;13.25;12.25;4.75
73825;PMS5003;64145;55.060;73.168;2023-03-05T11:16:03;13.50;10.50;5.00
73825;PMS5003;64145;55.060;73.168;2023-03-05T11:18:35;13.75;8.00;4.00
73825;PMS5003;64145;55.060;73.168;2023-03-05T11:21:07;13.00;9.50;4.00
73825;PMS5003;64145;55.060;73.168;2023-03-05T11:23:32;10.00;7.00;3.00
73825;PMS5003;64145;55.060;73.168;2023-03-05T11:28:32;13.50;12.00;6.00
73825;PMS5003;64145;55.060;73.168;2023-03-05T11:33:40;15.00;12.25;6.50
73825;PMS5003;64145;55.060;73.168;2023-03-05T11:36:22;17.00;16.50;9.50
73825;PMS5003;64145;55.060;73.168;2023-03-05T11:38:53;16.00;16.00;10.00
73825;PMS5003;64145;55.060;73.168;2023-03-05T11:44:50;14.50;13.00;6.00
73825;PMS5003;64145;55.060;73.168;2023-03-05T11:47:00;21.50;19.25;11.00
73825;PMS5003;64145;55.060;73.168;2023-03-05T11:49:27;23.00;21.00;12.00
73825;PMS5003;64145;55.060;73.168;2023-03-05T11:52:10;19.50;17.25;10.00
73825;PMS5003;64145;55.060;73.168;2023-03-05T11:54:51;15.25;15.00;7.00
73825;PMS5003;64145;55.060;73.168;2023-03-05T11:57:18;17.50;17.00;9.75
73825;PMS5003;64145;55.060;73.168;2023-03-05T11:59:45;15.00;14.00;7.00
73825;PMS5003;64145;55.060;73.168;2023-03-05T12:02:14;11.75;11.25;5.25
73825;PMS5003;64145;55.060;73.168;2023-03-05T12:04:41;12.25;10.00;6.00
73825;PMS5003;64145;55.060;73.168;2023-03-05T12:07:06;12.33;11.00;6.00
73825;PMS5003;64145;55.060;73.168;2023-03-05T12:09:50;13.75;12.50;6.25
73825;PMS5003;64145;55.060;73.168;2023-03-05T12:12:31;14.00;12.50;6.00
73825;PMS5003;64145;55.060;73.168;2023-03-05T12:17:44;17.00;15.75;8.50
73825;PMS5003;64145;55.060;73.168;2023-03-05T12:23:09;29.50;25.50;16.00
73825;PMS5003;64145;55.060;73.168;2023-03-05T12:25:47;26.50;23.75;15.75
73825;PMS5003;64145;55.060;73.168;2023-03-05T12:28:16;19.00;17.00;11.50
73825;PMS5003;64145;55.060;73.168;2023-03-05T12:31:46;20.00;19.00;10.00
73825;PMS5003;64145;55.060;73.168;2023-03-05T12:33:47;16.00;15.75;7.50
73825;PMS5003;64145;55.060;73.168;2023-03-05T12:51:55;8.00;6.50;3.25
73825;PMS5003;64145;55.060;73.168;2023-03-05T12:54:36;8.00;7.00;4.00
73825;PMS5003;64145;55.060;73.168;2023-03-05T13:02:26;21.50;19.50;12.00
73825;PMS5003;64145;55.060;73.168;2023-03-05T13:04:55;24.50;21.50;12.00
73825;PMS5003;64145;55.060;73.168;2023-03-05T13:07:27;25.75;23.00;15.00
73825;PMS5003;64145;55.060;73.168;2023-03-05T13:09:56;25.00;22.00;15.00
73825;PMS5003;64145;55.060;73.168;2023-03-05T13:12:27;24.00;21.75;14.25
73825;PMS5003;64145;55.060;73.168;2023-03-05T13:14:55;27.50;24.00;16.00
73825;PMS5003;64145;55.060;73.168;2023-03-05T13:17:29;27.50;24.25;16.00
73825;PMS5003;64145;55.060;73.168;2023-03-05T13:23:24;33.25;26.25;17.00
73825;PMS5003;64145;55.060;73.168;2023-03-05T13:28:26;31.75;26.75;17.00
73825;PMS5003;64145;55.060;73.168;2023-03-05T13:31:00;28.50;24.50;16.00
73825;PMS5003;64145;55.060;73.168;2023-03-05T13:33:28;29.75;24.50;15.00
73825;PMS5003;64145;55.060;73.168;2023-03-05T13:35:53;32.25;26.50;16.25
73825;PMS5003;64145;55.060;73.168;2023-03-05T13:38:42;30.00;25.00;15.00
73825;PMS5003;64145;55.060;73.168;2023-03-05T13:43:30;27.33;24.33;15.00
73825;PMS5003;64145;55.060;73.168;2023-03-05T13:45:56;27.33;25.00;15.00
73825;PMS5003;64145;55.060;73.168;2023-03-05T13:48:22;31.00;26.00;16.00
73825;PMS5003;64145;55.060;73.168;2023-03-05T13:50:55;33.50;26.75;18.00
73825;PMS5003;64145;55.060;73.168;2023-03-05T13:53:22;32.50;26.00;18.00
73825;PMS5003;64145;55.060;73.168;2023-03-05T13:55:49;34.50;27.00;17.00
73825;PMS5003;64145;55.060;73.168;2023-03-05T14:01:07;28.00;24.50;15.25
73825;PMS5003;64145;55.060;73.168;2023-03-05T14:03:36;29.00;24.50;15.00
73825;PMS5003;64145;55.060;73.168;2023-03-05T14:06:11;31.75;26.00;15.75
73825;PMS5003;64145;55.060;73.168;2023-03-05T14:08:40;36.00;28.50;17.75
73825;PMS5003;64145;55.060;73.168;2023-03-05T14:11:15;33.75;27.00;16.00
73825;PMS5003;64145;55.060;73.168;2023-03-05T14:14:07;23.75;19.50;12.50
73825;PMS5003;64145;55.060;73.168;2023-03-05T14:16:44;13.25;12.00;6.00
73825;PMS5003;64145;55.060;73.168;2023-03-05T14:21:53;7.00;6.00;4.00
73825;PMS5003;64145;55.060;73.168;2023-03-05T14:24:24;9.25;8.00;4.50
73825;PMS5003;64145;55.060;73.168;2023-03-05T14:27:03;9.00;8.00;5.00
73825;PMS5003;64145;55.060;73.168;2023-03-05T14:29:32;9.00;6.50;3.00
73825;PMS5003;64145;55.060;73.168;2023-03-05T14:31:59;6.75;6.00;3.00
73825;PMS5003;64145;55.060;73.168;2023-03-05T14:34:33;6.00;5.50;2.25
73825;PMS5003;64145;55.060;73.168;2023-03-05T14:37:01;10.00;7.75;3.50
73825;PMS5003;64145;55.060;73.168;2023-03-05T14:39:31;8.25;6.00;3.00
73825;PMS5003;64145;55.060;73.168;2023-03-05T14:44:39;11.50;8.00;3.75
73825;PMS5003;64145;55.060;73.168;2023-03-05T14:47:05;8.00;7.00;3.00
73825;PMS5003;64145;55.060;73.168;2023-03-05T14:49:31;8.75;7.50;3.00
73825;PMS5003;64145;55.060;73.168;2023-03-05T14:52:08;6.00;6.00;2.00
73825;PMS5003;64145;55.060;73.168;2023-03-05T14:54:35;8.50;7.00;3.00
73825;PMS5003;64145;55.060;73.168;2023-03-05T14:59:31;4.00;4.00;2.00
73825;PMS5003;64145;55.060;73.168;2023-03-05T15:01:57;5.33;5.00;2.00
73825;PMS5003;64145;55.060;73.168;2023-03-05T15:04:23;7.00;6.00;2.33
73825;PMS5003;64145;55.060;73.168;2023-03-05T15:06:48;5.67;5.00;3.00
73825;PMS5003;64145;55.060;73.168;2023-03-05T15:09:18;8.50;6.00;3.00
73825;PMS5003;64145;55.060;73.168;2023-03-05T15:11:54;8.50;7.75;3.00
73825;PMS5003;64145;55.060;73.168;2023-03-05T15:14:21;12.00;8.50;4.00
73825;PMS5003;64145;55.060;73.168;2023-03-05T15:17:05;10.00;8.00;2.50
73825;PMS5003;64145;55.060;73.168;2023-03-05T15:19:30;11.00;8.00;2.33
73825;PMS5003;64145;55.060;73.168;2023-03-05T15:22:15;13.50;8.50;4.00
73825;PMS5003;64145;55.060;73.168;2023-03-05T15:24:40;9.75;4.75;2.50
73825;PMS5003;64145;55.060;73.168;2023-03-05T15:27:06;5.33;4.00;2.00
73825;PMS5003;64145;55.060;73.168;2023-03-05T15:29:32;4.75;4.00;2.00
73825;PMS5003;64145;55.060;73.168;2023-03-05T15:31:58;4.25;3.75;1.25
73825;PMS5003;64145;55.060;73.168;2023-03-05T15:34:35;3.00;3.00;1.00
73825;PMS5003;64145;55.060;73.168;2023-03-05T15:37:01;4.00;4.00;0.00
73825;PMS5003;64145;55.060;73.168;2023-03-05T15:39:37;5.00;5.00;2.00
73825;PMS5003;64145;55.060;73.168;2023-03-05T15:42:02;5.33;5.33;2.00